createdAt,value
2023-02-21T02:00:36.269Z,93215.00
2023-02-21T02:01:36.313Z,93222.00
2023-02-21T02:02:36.332Z,93221.00
2023-02-21T02:03:36.385Z,93221.00
2023-02-21T02:04:36.433Z,93217.00
2023-02-21T02:05:36.441Z,93215.00
2023-02-21T02:06:36.490Z,93221.00
2023-02-21T02:07:36.523Z,93217.00
2023-02-21T02:08:36.564Z,93213.00
2023-02-21T02:09:36.611Z,93217.00
2023-02-21T02:10:36.657Z,93217.00
2023-02-21T02:11:36.692Z,93217.00
2023-02-21T02:12:36.729Z,93219.00
2023-02-21T02:13:36.765Z,93211.00
2023-02-21T02:14:36.824Z,93207.00
2023-02-21T02:15:36.888Z,93213.00
2023-02-21T02:16:36.873Z,93205.00
2023-02-21T02:17:36.924Z,93211.00
2023-02-21T02:18:36.962Z,93215.00
2023-02-21T02:19:37.097Z,93219.00
2023-02-21T02:20:37.039Z,93213.00
2023-02-21T02:21:37.072Z,93213.00
2023-02-21T02:22:37.114Z,93211.00
2023-02-21T02:23:37.151Z,93211.00
2023-02-21T02:24:37.188Z,93207.00
2023-02-21T02:25:37.223Z,93209.00
2023-02-21T02:26:37.252Z,93205.00
2023-02-21T02:27:37.298Z,93201.00
2023-02-21T02:28:37.330Z,93199.00
2023-02-21T02:29:37.372Z,93201.00
2023-02-21T02:30:37.439Z,93199.00
2023-02-21T02:31:37.600Z,93197.00
2023-02-21T02:32:37.489Z,93195.00
2023-02-21T02:33:37.514Z,93191.00
2023-02-21T02:34:37.560Z,93187.00
2023-02-21T02:35:37.604Z,93183.00
2023-02-21T02:36:37.633Z,93183.00
2023-02-21T02:37:37.673Z,93185.00
2023-02-21T02:38:37.717Z,93177.00
2023-02-21T02:39:37.754Z,93181.00
2023-02-21T02:40:37.789Z,93183.00
2023-02-21T02:41:37.833Z,93183.00
2023-02-21T02:42:37.894Z,93183.00
2023-02-21T02:43:37.920Z,93187.00
2023-02-21T02:44:37.959Z,93185.00
2023-02-21T02:45:37.997Z,93191.00
2023-02-21T02:46:38.053Z,93183.00
2023-02-21T02:47:38.078Z,93191.00
2023-02-21T02:48:38.127Z,93183.00
2023-02-21T02:49:38.156Z,93185.00
2023-02-21T02:50:38.207Z,93185.00
2023-02-21T02:51:38.258Z,93177.00
2023-02-21T02:52:38.297Z,93183.00
2023-02-21T02:53:38.405Z,93181.00
2023-02-21T02:54:38.380Z,93179.00
2023-02-21T02:55:38.422Z,93183.00
2023-02-21T02:56:38.475Z,93179.00
2023-02-21T02:57:38.511Z,93183.00
2023-02-21T02:58:38.557Z,93181.00
2023-02-21T02:59:38.598Z,93173.00
2023-02-21T03:00:38.651Z,93173.00
2023-02-21T03:01:38.749Z,93173.00
2023-02-21T03:02:38.729Z,93171.00
2023-02-21T03:03:38.823Z,93169.00
2023-02-21T03:04:38.829Z,93171.00
2023-02-21T03:05:38.864Z,93171.00
2023-02-21T03:06:38.907Z,93167.00
2023-02-21T03:07:38.954Z,93171.00
2023-02-21T03:08:39.035Z,93167.00
2023-02-21T03:09:39.046Z,93171.00
2023-02-21T03:10:39.106Z,93171.00
2023-02-21T03:11:39.149Z,93169.00
2023-02-21T03:12:39.192Z,93162.00
2023-02-21T03:13:39.234Z,93167.00
2023-02-21T03:14:39.272Z,93166.00
2023-02-21T03:15:39.318Z,93162.00
2023-02-21T03:16:39.368Z,93171.00
2023-02-21T03:17:39.403Z,93171.00
2023-02-21T03:18:39.443Z,93166.00
2023-02-21T03:19:39.488Z,93166.00
2023-02-21T03:20:39.525Z,93167.00
2023-02-21T03:21:39.565Z,93162.00
2023-02-21T03:22:39.607Z,93162.00
2023-02-21T03:23:39.652Z,93162.00
2023-02-21T03:24:39.693Z,93162.00
2023-02-21T03:25:39.736Z,93160.00
2023-02-21T03:26:39.774Z,93162.00
2023-02-21T03:27:39.801Z,93160.00
2023-02-21T03:28:39.854Z,93162.00
2023-02-21T03:29:39.888Z,93158.00
2023-02-21T03:30:39.947Z,93152.00
2023-02-21T03:31:40.048Z,93160.00
2023-02-21T03:32:40.000Z,93158.00
2023-02-21T03:33:40.038Z,93162.00
2023-02-21T03:34:40.078Z,93160.00
2023-02-21T03:35:40.126Z,93148.00
2023-02-21T03:36:40.160Z,93142.00
2023-02-21T03:37:40.191Z,93144.00
2023-02-21T03:38:40.233Z,93144.00
2023-02-21T03:39:40.283Z,93144.00
2023-02-21T03:40:40.314Z,93144.00
2023-02-21T03:41:40.357Z,93142.00
2023-02-21T03:42:40.406Z,93140.00
2023-02-21T03:43:40.442Z,93136.00
2023-02-21T03:44:40.495Z,93134.00
2023-02-21T03:45:40.525Z,93138.00
2023-02-21T03:46:41.034Z,93142.00
2023-02-21T03:47:40.613Z,93140.00
2023-02-21T03:48:40.674Z,93136.00
2023-02-21T03:49:40.728Z,93140.00
2023-02-21T03:50:40.759Z,93140.00
2023-02-21T03:51:40.796Z,93140.00
2023-02-21T03:52:40.838Z,93136.00
2023-02-21T03:53:40.891Z,93138.00
2023-02-21T03:54:40.935Z,93138.00
2023-02-21T03:55:40.979Z,93136.00
2023-02-21T03:56:42.398Z,93134.00
2023-02-21T03:57:41.072Z,93138.00
2023-02-21T03:58:41.115Z,93140.00
2023-02-21T03:59:41.156Z,93140.00
2023-02-21T04:00:41.192Z,93130.00
2023-02-21T04:01:41.306Z,93126.00
2023-02-21T04:02:41.284Z,93126.00
2023-02-21T04:03:41.319Z,93126.00
2023-02-21T04:04:41.368Z,93132.00
2023-02-21T04:05:41.422Z,93136.00
2023-02-21T04:06:41.451Z,93138.00
2023-02-21T04:07:41.484Z,93138.00
2023-02-21T04:08:41.523Z,93136.00
2023-02-21T04:09:41.573Z,93134.00
2023-02-21T04:10:51.579Z,93126.00
2023-02-21T04:11:42.587Z,93128.00
2023-02-21T04:12:41.593Z,93124.00
2023-02-21T04:13:41.596Z,93128.00
2023-02-21T04:14:41.610Z,93130.00
2023-02-21T04:15:41.608Z,93130.00
2023-02-21T04:16:41.614Z,93128.00
2023-02-21T04:17:41.613Z,93130.00
2023-02-21T04:18:41.625Z,93130.00
2023-02-21T04:19:41.622Z,93124.00
2023-02-21T04:20:41.612Z,93128.00
2023-02-21T04:21:41.617Z,93126.00
2023-02-21T04:22:41.939Z,93120.00
2023-02-21T04:23:41.617Z,93120.00
2023-02-21T04:24:41.621Z,93122.00
2023-02-21T04:25:41.621Z,93119.00
2023-02-21T04:26:41.623Z,93120.00
2023-02-21T04:27:41.634Z,93122.00
2023-02-21T04:28:41.618Z,93122.00
2023-02-21T04:29:41.623Z,93117.00
2023-02-21T04:30:41.676Z,93119.00
2023-02-21T04:31:41.711Z,93120.00
2023-02-21T04:32:41.737Z,93124.00
2023-02-21T04:33:41.719Z,93120.00
2023-02-21T04:34:41.744Z,93120.00
2023-02-21T04:35:41.774Z,93124.00
2023-02-21T04:36:41.788Z,93119.00
2023-02-21T04:37:41.818Z,93117.00
2023-02-21T04:38:41.842Z,93111.00
2023-02-21T04:39:41.879Z,93105.00
2023-02-21T04:40:41.892Z,93111.00
2023-02-21T04:41:41.909Z,93111.00
2023-02-21T04:42:41.935Z,93119.00
2023-02-21T04:43:41.963Z,93115.00
2023-02-21T04:44:46.626Z,93119.00
2023-02-21T04:45:43.014Z,93117.00
2023-02-21T04:46:41.963Z,93119.00
2023-02-21T04:47:41.952Z,93113.00
2023-02-21T04:48:41.943Z,93115.00
2023-02-21T04:49:41.937Z,93115.00
2023-02-21T04:50:41.924Z,93117.00
2023-02-21T04:51:41.924Z,93115.00
2023-02-21T04:52:41.908Z,93115.00
2023-02-21T04:53:41.919Z,93119.00
2023-02-21T04:54:41.905Z,93115.00
2023-02-21T04:55:41.906Z,93111.00
2023-02-21T04:56:41.960Z,93113.00
2023-02-21T04:57:41.897Z,93119.00
2023-02-21T04:58:45.552Z,93120.00
2023-02-21T04:59:41.884Z,93119.00
2023-02-21T05:00:41.883Z,93122.00
2023-02-21T05:01:41.899Z,93117.00
2023-02-21T05:02:41.873Z,93120.00
2023-02-21T05:03:41.868Z,93120.00
2023-02-21T05:04:41.857Z,93117.00
2023-02-21T05:05:41.851Z,93117.00
2023-02-21T05:06:41.852Z,93117.00
2023-02-21T05:07:41.846Z,93115.00
2023-02-21T05:08:41.845Z,93117.00
2023-02-21T05:09:41.837Z,93117.00
2023-02-21T05:10:45.689Z,93119.00
2023-02-21T05:11:41.828Z,93117.00
2023-02-21T05:12:41.820Z,93115.00
2023-02-21T05:13:41.815Z,93117.00
2023-02-21T05:14:41.815Z,93111.00
2023-02-21T05:15:41.810Z,93113.00
2023-02-21T05:16:41.887Z,93117.00
2023-02-21T05:17:41.802Z,93117.00
2023-02-21T05:18:41.791Z,93109.00
2023-02-21T05:19:41.791Z,93113.00
2023-02-21T05:20:41.789Z,93109.00
2023-02-21T05:21:41.787Z,93107.00
2023-02-21T05:22:41.776Z,93107.00
2023-02-21T05:23:41.778Z,93107.00
2023-02-21T05:24:41.776Z,93105.00
2023-02-21T05:25:41.754Z,93107.00
2023-02-21T05:26:41.747Z,93103.00
2023-02-21T05:27:41.743Z,93097.00
2023-02-21T05:28:41.720Z,93101.00
2023-02-21T05:29:41.709Z,93101.00
2023-02-21T05:30:41.807Z,93103.00
2023-02-21T05:31:41.701Z,93103.00
2023-02-21T05:32:41.698Z,93099.00
2023-02-21T05:33:41.692Z,93103.00
2023-02-21T05:34:41.708Z,93093.00
2023-02-21T05:35:41.676Z,93093.00
2023-02-21T05:36:41.664Z,93091.00
2023-02-21T05:37:41.663Z,93097.00
2023-02-21T05:38:41.657Z,93095.00
2023-02-21T05:39:41.649Z,93089.00
2023-02-21T05:40:41.644Z,93097.00
2023-02-21T05:41:41.627Z,93101.00
2023-02-21T05:42:41.621Z,93097.00
2023-02-21T05:43:41.618Z,93097.00
2023-02-21T05:44:41.610Z,93099.00
2023-02-21T05:45:41.650Z,93097.00
2023-02-21T05:46:41.585Z,93097.00
2023-02-21T06:32:41.589Z,93154.00
2023-02-21T06:33:41.496Z,93152.00
2023-02-21T06:35:41.509Z,93160.00
2023-02-21T06:36:41.509Z,93160.00
2023-02-21T06:37:41.521Z,93158.00
2023-02-21T06:38:41.535Z,93160.00
2023-02-21T06:39:41.533Z,93160.00
2023-02-21T06:40:41.601Z,93164.00
2023-02-21T06:41:41.641Z,93167.00
2023-02-21T06:42:41.675Z,93167.00
2023-02-21T06:43:41.731Z,93167.00
2023-02-21T06:44:41.776Z,93166.00
2023-02-21T06:45:41.845Z,93166.00
2023-02-21T06:46:41.889Z,93167.00
2023-02-21T06:47:41.937Z,93171.00
2023-02-21T06:48:41.985Z,93171.00
2023-02-21T06:49:42.033Z,93171.00
2023-02-21T06:50:42.081Z,93173.00
2023-02-21T06:51:42.127Z,93175.00
2023-02-21T06:52:42.150Z,93177.00
2023-02-21T06:53:42.206Z,93179.00
2023-02-21T06:54:42.243Z,93179.00
2023-02-21T06:55:42.289Z,93181.00
2023-02-21T06:56:42.298Z,93183.00
2023-02-21T06:57:42.319Z,93175.00
2023-02-21T06:58:42.350Z,93179.00
2023-02-21T06:59:42.357Z,93181.00
2023-02-21T07:00:42.465Z,93181.00
2023-02-21T07:01:42.420Z,93181.00
2023-02-21T07:02:42.400Z,93183.00
2023-02-21T07:03:42.422Z,93187.00
2023-02-21T07:04:42.484Z,93187.00
2023-02-21T07:05:42.405Z,93185.00
2023-02-21T07:06:42.400Z,93191.00
2023-02-21T07:07:42.395Z,93189.00
2023-02-21T07:08:42.420Z,93187.00
2023-02-21T07:09:42.460Z,93189.00
2023-02-21T07:10:42.518Z,93191.00
2023-02-21T07:11:42.570Z,93195.00
2023-02-21T07:12:42.619Z,93193.00
2023-02-21T07:13:42.675Z,93197.00
2023-02-21T07:14:42.710Z,93195.00
2023-02-21T07:15:42.776Z,93191.00
2023-02-21T07:16:42.809Z,93195.00
2023-02-21T07:17:42.825Z,93199.00
2023-02-21T07:18:42.879Z,93197.00
2023-02-21T07:19:42.914Z,93195.00
2023-02-21T07:20:42.939Z,93197.00
2023-02-21T07:21:42.980Z,93195.00
2023-02-21T07:29:42.978Z,93191.00
2023-02-21T07:30:43.109Z,93191.00
2023-02-21T07:31:43.155Z,93189.00
2023-02-21T07:32:43.083Z,93193.00
2023-02-21T07:33:43.120Z,93189.00
2023-02-21T07:34:43.142Z,93191.00
2023-02-21T07:35:43.165Z,93189.00
2023-02-21T07:36:43.175Z,93191.00
2023-02-21T07:37:43.154Z,93195.00
2023-02-21T07:38:43.181Z,93193.00
2023-02-21T07:39:43.209Z,93189.00
2023-02-21T07:40:43.264Z,93189.00
2023-02-21T07:41:43.319Z,93189.00
2023-02-21T07:42:43.369Z,93191.00
2023-02-21T07:43:43.412Z,93195.00
2023-02-21T07:44:43.457Z,93189.00
2023-02-21T07:45:43.485Z,93191.00
2023-02-21T07:46:43.614Z,93195.00
2023-02-21T07:47:43.536Z,93191.00
2023-02-21T07:48:43.580Z,93195.00
2023-02-21T07:49:43.596Z,93193.00
2023-02-21T07:50:43.578Z,93193.00
2023-02-21T07:51:43.567Z,93193.00
2023-02-21T07:52:43.551Z,93191.00
2023-02-21T07:53:43.539Z,93195.00
2023-02-21T07:54:43.527Z,93185.00
2023-02-21T07:55:43.526Z,93189.00
2023-02-21T07:56:43.521Z,93187.00
2023-02-21T07:57:43.530Z,93181.00
2023-02-21T07:58:43.517Z,93183.00
2023-02-21T07:59:43.520Z,93183.00
2023-02-21T08:00:43.513Z,93185.00
2023-02-21T08:01:43.601Z,93185.00
2023-02-21T08:02:43.495Z,93185.00
2023-02-21T08:03:43.508Z,93187.00
2023-02-21T08:04:43.582Z,93185.00
2023-02-21T08:05:43.585Z,93187.00
2023-02-21T08:06:43.620Z,93187.00
2023-02-21T08:07:43.680Z,93189.00
2023-02-21T08:08:43.679Z,93189.00
2023-02-21T08:09:43.711Z,93189.00
2023-02-21T08:10:43.727Z,93189.00
2023-02-21T08:11:43.748Z,93189.00
2023-02-21T08:12:43.770Z,93193.00
2023-02-21T08:13:43.781Z,93189.00
2023-02-21T08:14:43.804Z,93191.00
2023-02-21T08:15:43.792Z,93191.00
2023-02-21T08:16:43.771Z,93189.00
2023-02-21T08:17:43.764Z,93189.00
2023-02-21T08:18:43.738Z,93189.00
2023-02-21T08:19:43.727Z,93191.00
2023-02-21T08:20:43.708Z,93189.00
2023-02-21T08:21:45.709Z,93183.00
2023-02-21T08:22:43.689Z,93185.00
2023-02-21T08:23:43.666Z,93183.00
2023-02-21T08:24:43.636Z,93187.00
2023-02-21T08:25:43.610Z,93185.00
2023-02-21T08:26:43.612Z,93185.00
2023-02-21T08:27:43.617Z,93187.00
2023-02-21T08:28:43.579Z,93189.00
2023-02-21T08:29:43.563Z,93185.00
2023-02-21T08:30:43.598Z,93183.00
2023-02-21T08:31:43.579Z,93183.00
2023-02-21T08:32:43.514Z,93183.00
2023-02-21T08:33:43.478Z,93181.00
2023-02-21T08:34:43.449Z,93179.00
2023-02-21T08:35:43.429Z,93181.00
2023-02-21T08:36:43.446Z,93175.00
2023-02-21T08:37:44.254Z,93175.00
2023-02-21T08:38:43.469Z,93177.00
2023-02-21T08:39:43.475Z,93181.00
2023-02-21T08:40:43.489Z,93171.00
2023-02-21T08:41:43.508Z,93173.00
2023-02-21T08:42:43.508Z,93173.00
2023-02-21T08:43:43.525Z,93173.00
2023-02-21T08:44:43.595Z,93171.00
2023-02-21T08:45:43.551Z,93169.00
2023-02-21T08:46:43.606Z,93169.00
2023-02-21T08:47:43.573Z,93169.00
2023-02-21T08:48:43.591Z,93169.00
2023-02-21T08:49:43.603Z,93167.00
2023-02-21T08:50:43.612Z,93167.00
2023-02-21T08:51:43.645Z,93166.00
2023-02-21T08:52:43.660Z,93166.00
2023-02-21T08:53:43.669Z,93166.00
2023-02-21T08:54:44.262Z,93162.00
2023-02-21T08:55:43.700Z,93162.00
2023-02-21T08:56:43.720Z,93164.00
2023-02-21T08:57:43.733Z,93160.00
2023-02-21T08:58:43.749Z,93160.00
2023-02-21T08:59:43.757Z,93158.00
2023-02-21T09:00:43.786Z,93156.00
2023-02-21T09:01:43.824Z,93156.00
2023-02-21T09:02:43.807Z,93146.00
2023-02-21T09:03:43.828Z,93148.00
2023-02-21T09:04:43.848Z,93144.00
2023-02-21T09:05:43.859Z,93142.00
2023-02-21T09:06:43.874Z,93144.00
2023-02-21T09:07:43.907Z,93144.00
2023-02-21T09:08:44.865Z,93142.00
2023-02-21T09:09:43.920Z,93136.00
2023-02-21T09:10:43.999Z,93140.00
2023-02-21T09:11:43.965Z,93138.00
2023-02-21T09:12:43.974Z,93132.00
2023-02-21T09:13:43.986Z,93132.00
2023-02-21T09:14:44.007Z,93134.00
2023-02-21T09:15:44.045Z,93130.00
2023-02-21T09:16:46.180Z,93132.00
2023-02-21T09:17:44.038Z,93126.00
2023-02-21T09:18:44.354Z,93128.00
2023-02-21T09:19:43.983Z,93124.00
2023-02-21T09:20:43.970Z,93120.00
2023-02-21T09:21:43.965Z,93124.00
2023-02-21T09:22:43.921Z,93124.00
2023-02-21T09:23:43.912Z,93126.00
2023-02-21T09:24:43.897Z,93120.00
2023-02-21T09:25:43.875Z,93117.00
2023-02-21T09:26:43.884Z,93119.00
2023-02-21T09:27:43.827Z,93117.00
2023-02-21T09:28:43.815Z,93119.00
2023-02-21T09:29:46.640Z,93115.00
2023-02-21T09:30:43.822Z,93117.00
2023-02-21T09:31:43.779Z,93117.00
2023-02-21T09:32:43.731Z,93111.00
2023-02-21T09:33:43.691Z,93113.00
2023-02-21T09:34:43.657Z,93111.00
2023-02-21T09:35:43.628Z,93103.00
2023-02-21T09:36:43.589Z,93113.00
2023-02-21T09:37:43.563Z,93109.00
2023-02-21T09:38:43.536Z,93107.00
2023-02-21T09:39:43.518Z,93107.00
2023-02-21T09:40:43.487Z,93101.00
2023-02-21T09:41:43.463Z,93105.00
2023-02-21T09:42:43.461Z,93101.00
2023-02-21T09:43:43.519Z,93099.00
2023-02-21T09:44:43.382Z,93101.00
2023-02-21T09:45:43.395Z,93099.00
2023-02-21T09:46:43.346Z,93097.00
2023-02-21T09:47:44.341Z,93093.00
2023-02-21T09:48:43.280Z,93095.00
2023-02-21T09:49:43.255Z,93093.00
2023-02-21T09:50:43.225Z,93091.00
2023-02-21T09:51:43.198Z,93089.00
2023-02-21T09:52:43.218Z,93089.00
2023-02-21T09:53:43.149Z,93079.00
2023-02-21T09:54:43.125Z,93081.00
2023-02-21T09:55:43.151Z,93075.00
2023-02-21T09:56:43.188Z,93072.00
2023-02-21T09:57:43.232Z,93072.00
2023-02-21T09:58:43.285Z,93072.00
2023-02-21T09:59:43.314Z,93070.00
2023-02-21T10:00:46.503Z,93072.00
2023-02-21T10:01:43.313Z,93074.00
2023-02-21T10:02:43.271Z,93070.00
2023-02-21T10:03:43.241Z,93066.00
2023-02-21T10:04:43.232Z,93068.00
2023-02-21T10:05:43.207Z,93068.00
2023-02-21T10:06:43.151Z,93066.00
2023-02-21T10:07:43.122Z,93064.00
2023-02-21T10:08:43.095Z,93062.00
2023-02-21T10:09:43.066Z,93062.00
2023-02-21T10:10:43.054Z,93062.00
2023-02-21T10:11:43.009Z,93058.00
2023-02-21T10:12:42.983Z,93056.00
2023-02-21T10:13:42.957Z,93054.00
2023-02-21T10:14:42.967Z,93052.00
2023-02-21T10:15:42.903Z,93048.00
2023-02-21T10:16:42.911Z,93050.00
2023-02-21T10:17:42.840Z,93050.00
2023-02-21T10:18:42.800Z,93048.00
2023-02-21T10:19:42.767Z,93048.00
2023-02-21T10:20:42.732Z,93046.00
2023-02-21T10:21:42.689Z,93042.00
2023-02-21T10:22:42.655Z,93042.00
2023-02-21T10:23:42.623Z,93042.00
2023-02-21T10:24:42.596Z,93036.00
2023-02-21T10:25:42.574Z,93032.00
2023-02-21T10:26:42.599Z,93030.00
2023-02-21T10:27:42.530Z,93032.00
2023-02-21T10:28:43.414Z,93030.00
2023-02-21T10:29:42.440Z,93032.00
2023-02-21T10:30:42.543Z,93028.00
2023-02-21T10:31:42.538Z,93027.00
2023-02-21T10:32:42.349Z,93027.00
2023-02-21T10:33:42.332Z,93027.00
2023-02-21T10:34:42.301Z,93025.00
2023-02-21T10:35:42.289Z,93023.00
2023-02-21T10:36:42.266Z,93025.00
2023-02-21T10:37:42.247Z,93025.00
2023-02-21T10:38:42.230Z,93021.00
2023-02-21T10:39:42.206Z,93021.00
2023-02-21T10:40:42.188Z,93015.00
2023-02-21T10:41:42.176Z,93015.00
2023-02-21T10:42:42.139Z,93011.00
2023-02-21T10:43:42.117Z,93013.00
2023-02-21T10:44:42.104Z,93015.00
2023-02-21T10:45:42.985Z,93013.00
2023-02-21T10:46:42.089Z,93011.00
2023-02-21T10:47:42.023Z,93007.00
2023-02-21T10:48:42.036Z,93005.00
2023-02-21T10:49:41.985Z,93005.00
2023-02-21T10:50:41.979Z,93001.00
2023-02-21T10:51:41.948Z,93003.00
2023-02-21T10:52:42.041Z,93003.00
2023-02-21T10:53:41.902Z,92999.00
2023-02-21T10:54:41.871Z,92997.00
2023-02-21T10:55:41.851Z,92993.00
2023-02-21T10:56:41.834Z,92995.00
2023-02-21T10:57:41.818Z,92993.00
2023-02-21T10:58:41.791Z,92993.00
2023-02-21T10:59:41.773Z,92989.00
2023-02-21T11:00:41.826Z,92987.00
2023-02-21T11:01:41.834Z,92987.00
2023-02-21T12:14:41.762Z,92848.00
2023-02-21T12:15:41.863Z,92846.00
2023-02-21T12:16:41.776Z,92844.00
2023-02-21T12:17:41.790Z,92844.00
2023-02-21T12:18:41.805Z,92842.00
2023-02-21T12:19:41.818Z,92840.00
2023-02-21T12:20:41.839Z,92836.00
2023-02-21T12:21:41.844Z,92834.00
2023-02-21T12:22:42.778Z,92832.00
2023-02-21T12:23:41.883Z,92825.00
2023-02-21T12:24:41.892Z,92821.00
2023-02-21T12:25:41.892Z,92821.00
2023-02-21T12:28:41.933Z,92813.00
2023-02-21T12:29:41.949Z,92813.00
2023-02-21T12:30:42.023Z,92809.00
2023-02-21T12:31:42.047Z,92809.00
2023-02-21T12:32:41.994Z,92807.00
2023-02-21T12:33:42.005Z,92803.00
2023-02-21T12:34:42.009Z,92797.00
2023-02-21T12:35:42.068Z,92797.00
2023-02-21T12:36:42.048Z,92797.00
2023-02-21T12:37:42.064Z,92793.00
2023-02-21T12:38:42.086Z,92793.00
2023-02-21T12:39:42.094Z,92791.00
2023-02-21T12:40:42.115Z,92787.00
2023-02-21T12:41:42.130Z,92786.00
2023-02-21T12:42:42.151Z,92784.00
2023-02-21T12:43:42.161Z,92784.00
2023-02-21T12:44:42.175Z,92780.00
2023-02-21T12:45:42.202Z,92780.00
2023-02-21T12:46:42.308Z,92778.00
2023-02-21T12:47:42.238Z,92776.00
2023-02-21T12:48:42.243Z,92776.00
2023-02-21T12:49:42.262Z,92772.00
2023-02-21T12:50:42.290Z,92770.00
2023-02-21T12:51:42.285Z,92768.00
2023-02-21T12:52:42.300Z,92762.00
2023-02-21T12:53:42.320Z,92760.00
2023-02-21T12:54:42.351Z,92760.00
2023-02-21T12:55:42.360Z,92756.00
2023-02-21T12:56:42.381Z,92756.00
2023-02-21T12:57:42.399Z,92754.00
2023-02-21T12:58:42.419Z,92748.00
2023-02-21T12:59:42.491Z,92750.00
2023-02-21T13:00:42.456Z,92744.00
2023-02-21T13:01:42.518Z,92744.00
2023-02-21T13:02:42.563Z,92744.00
2023-02-21T13:03:42.503Z,92740.00
2023-02-21T13:04:42.518Z,92738.00
2023-02-21T13:05:42.548Z,92738.00
2023-02-21T13:06:42.564Z,92735.00
2023-02-21T13:07:42.581Z,92735.00
2023-02-21T13:08:42.604Z,92733.00
2023-02-21T13:09:42.628Z,92731.00
2023-02-21T13:10:42.631Z,92729.00
2023-02-21T13:11:43.396Z,92727.00
2023-02-21T13:12:42.666Z,92723.00
2023-02-21T13:13:42.688Z,92721.00
2023-02-21T13:14:42.756Z,92721.00
2023-02-21T13:15:42.720Z,92719.00
2023-02-21T13:16:42.745Z,92719.00
2023-02-21T13:17:42.759Z,92717.00
2023-02-21T13:18:42.777Z,92715.00
2023-02-21T13:19:42.790Z,92717.00
2023-02-21T13:20:42.809Z,92715.00
2023-02-21T13:21:42.843Z,92713.00
2023-02-21T13:22:42.848Z,92711.00
2023-02-21T13:23:42.868Z,92709.00
2023-02-21T13:24:42.890Z,92709.00
2023-02-21T13:25:43.443Z,92705.00
2023-02-21T13:26:42.930Z,92701.00
2023-02-21T13:27:42.946Z,92705.00
2023-02-21T13:28:42.967Z,92701.00
2023-02-21T13:29:42.973Z,92699.00
2023-02-21T13:30:43.067Z,92699.00
2023-02-21T13:31:43.106Z,92699.00
2023-02-21T13:32:43.034Z,92693.00
2023-02-21T13:33:43.056Z,92691.00
2023-02-21T13:34:45.470Z,92689.00
2023-02-21T13:35:43.166Z,92691.00
2023-02-21T13:36:43.164Z,92689.00
2023-02-21T13:37:43.187Z,92687.00
2023-02-21T13:38:43.213Z,92684.00
2023-02-21T13:39:43.227Z,92682.00
2023-02-21T13:40:43.252Z,92684.00
2023-02-21T13:41:43.270Z,92682.00
2023-02-21T13:42:43.295Z,92682.00
2023-02-21T13:43:43.863Z,92684.00
2023-02-21T13:44:43.328Z,92678.00
2023-02-21T13:45:43.331Z,92678.00
2023-02-21T13:46:43.409Z,92678.00
2023-02-21T13:47:43.372Z,92678.00
2023-02-21T13:48:43.407Z,92678.00
2023-02-21T13:49:43.420Z,92676.00
2023-02-21T13:50:43.443Z,92674.00
2023-02-21T13:51:43.456Z,92674.00
2023-02-21T13:52:43.490Z,92672.00
2023-02-21T13:53:43.489Z,92668.00
2023-02-21T13:54:43.523Z,92666.00
2023-02-21T13:55:43.531Z,92670.00
2023-02-21T13:56:43.549Z,92668.00
2023-02-21T13:57:43.568Z,92664.00
2023-02-21T13:58:43.613Z,92662.00
2023-02-21T13:59:43.625Z,92658.00
2023-02-21T14:00:43.657Z,92656.00
2023-02-21T14:01:43.701Z,92654.00
2023-02-21T14:02:43.678Z,92654.00
2023-02-21T14:03:43.785Z,92652.00
2023-02-21T14:04:43.741Z,92650.00
2023-02-21T14:05:43.755Z,92652.00
2023-02-21T14:06:43.769Z,92652.00
2023-02-21T14:07:43.797Z,92650.00
2023-02-21T14:08:43.806Z,92650.00
2023-02-21T14:09:43.833Z,92650.00
2023-02-21T14:10:43.853Z,92648.00
2023-02-21T14:11:43.870Z,92646.00
2023-02-21T14:12:43.890Z,92644.00
2023-02-21T14:13:43.924Z,92642.00
2023-02-21T14:14:43.944Z,92642.00
2023-02-21T14:15:43.984Z,92640.00
2023-02-21T14:16:44.052Z,92638.00
2023-02-21T14:17:44.021Z,92638.00
2023-02-21T14:18:44.047Z,92635.00
2023-02-21T14:19:44.079Z,92637.00
2023-02-21T14:20:44.089Z,92637.00
2023-02-21T14:22:44.136Z,92635.00
2023-02-21T14:23:44.152Z,92635.00
2023-02-21T14:24:44.192Z,92635.00
2023-02-21T14:25:44.203Z,92635.00
2023-02-21T14:26:44.260Z,92635.00
2023-02-21T14:27:44.255Z,92635.00
2023-02-21T14:28:44.276Z,92635.00
2023-02-21T14:29:44.365Z,92633.00
2023-02-21T14:30:44.376Z,92635.00
2023-02-21T14:32:44.427Z,92633.00
2023-02-21T14:33:44.386Z,92633.00
2023-02-21T16:23:46.513Z,92633.00
2023-02-21T17:16:48.438Z,92687.00
2023-02-21T17:17:53.246Z,92689.00
2023-02-21T17:20:48.435Z,92691.00
2023-02-21T17:21:48.416Z,92693.00
2023-02-21T17:22:48.451Z,92695.00
2023-02-21T17:23:48.379Z,92697.00
2023-02-21T17:24:48.355Z,92697.00
2023-02-21T17:25:48.337Z,92699.00
2023-02-21T17:26:48.370Z,92699.00
2023-02-21T17:27:48.309Z,92701.00
2023-02-21T17:28:48.292Z,92701.00
2023-02-21T17:29:48.319Z,92707.00
2023-02-21T17:30:48.361Z,92707.00
2023-02-21T17:31:48.400Z,92709.00
2023-02-21T17:32:48.475Z,92711.00
2023-02-21T17:33:48.504Z,92713.00
2023-02-21T17:34:48.522Z,92713.00
2023-02-21T17:35:48.561Z,92715.00
2023-02-21T17:36:48.606Z,92719.00
2023-02-21T17:37:48.636Z,92719.00
2023-02-21T17:38:48.690Z,92721.00
2023-02-21T17:39:48.747Z,92723.00
2023-02-21T17:40:48.775Z,92725.00
2023-02-21T17:41:48.819Z,92727.00
2023-02-21T17:42:48.882Z,92729.00
2023-02-21T17:43:48.960Z,92731.00
2023-02-21T17:44:48.974Z,92733.00
2023-02-21T17:45:49.010Z,92736.00
2023-02-21T17:46:49.074Z,92735.00
2023-02-21T17:47:49.106Z,92738.00
2023-02-21T17:48:49.158Z,92735.00
2023-02-21T17:49:49.181Z,92736.00
2023-02-21T17:50:49.221Z,92736.00
2023-02-21T17:51:49.303Z,92738.00
2023-02-21T17:52:49.318Z,92740.00
2023-02-21T17:53:49.371Z,92742.00
2023-02-21T17:54:49.415Z,92744.00
2023-02-21T17:55:49.460Z,92746.00
2023-02-21T17:56:49.531Z,92746.00
2023-02-21T17:57:49.550Z,92748.00
2023-02-21T17:58:49.626Z,92748.00
2023-02-21T17:59:49.652Z,92748.00
2023-02-21T18:00:49.726Z,92750.00
2023-02-21T18:01:49.754Z,92750.00
2023-02-21T18:02:49.807Z,92752.00
2023-02-21T18:03:49.868Z,92752.00
2023-02-21T18:04:50.010Z,92752.00
2023-02-21T18:05:49.956Z,92750.00
2023-02-21T18:06:50.007Z,92752.00
2023-02-21T18:07:50.068Z,92750.00
2023-02-21T18:08:50.097Z,92750.00
2023-02-21T18:09:50.169Z,92754.00
2023-02-21T18:10:50.199Z,92756.00
2023-02-21T18:11:50.255Z,92752.00
2023-02-21T18:12:51.416Z,92752.00
2023-02-21T18:13:50.340Z,92754.00
2023-02-21T18:14:50.368Z,92756.00
2023-02-21T18:15:50.463Z,92758.00
2023-02-21T18:16:50.467Z,92758.00
2023-02-21T18:17:50.505Z,92758.00
2023-02-21T18:18:50.546Z,92760.00
2023-02-21T18:19:50.592Z,92754.00
2023-02-21T18:20:50.628Z,92762.00
2023-02-21T18:21:50.672Z,92756.00
2023-02-21T18:22:50.744Z,92756.00
2023-02-21T18:23:51.977Z,92758.00
2023-02-21T18:24:50.813Z,92760.00
2023-02-21T18:25:50.868Z,92760.00
2023-02-21T18:26:50.913Z,92758.00
2023-02-21T18:27:50.975Z,92758.00
2023-02-21T18:28:51.018Z,92762.00
2023-02-21T18:29:51.076Z,92760.00
2023-02-21T18:30:51.124Z,92762.00
2023-02-21T18:31:52.074Z,92760.00
2023-02-21T18:32:51.233Z,92756.00
2023-02-21T18:33:51.281Z,92764.00
2023-02-21T18:34:51.336Z,92762.00
2023-02-21T18:35:51.366Z,92764.00
2023-02-21T18:36:51.428Z,92760.00